Airfield :
LOGIN :

Register | Disclaimer

   EN    FR    IT 

 










Legend :    VFR   Marginal VFR   IFR   Intensive IFR   Very Intensive IFR
Visi :
Ceiling :
>= 8 km
>= 3000ft
5 to 8 km
1000 to 3000 ft
1500m to 5 km
500 to 1000 ft
800 to 1500m
200 to 500 ft
< 800m
< 200 ft
Symbols :   Thunderstorms  Fog  Heavy snow  Heavy precipitations  Wind > 20 kt
SIGMETs :     Misc.  Thunderstorms  Icing  Turbulence  Mountain Waves  Volcanic Ashes







- Airport Elevation : 821 ft
- IATA code : LYS
- Download approach charts


LFLL - Lyon St Exupéry / Satolas

CURRENT METAR :
  • 300100Z 17007KT CAVOK 23/09 Q1015 NOSIG

EXPIRED METARs :
  • 300030Z 19003KT CAVOK 23/10 Q1016 NOSIG
  • 300000Z 24004KT 150V300 CAVOK 23/09 Q1016 NOSIG
  • 292330Z 15007KT CAVOK 23/09 Q1016 NOSIG
  • 292300Z 14007KT CAVOK 24/09 Q1016 NOSIG
  • 292230Z 13008KT CAVOK 23/10 Q1016 NOSIG

TAF TAF LFLL
Valid from the 30 at 00:00 until the 31 at 06:00 UTC


292300Z 3000/3106 18010KT CAVOK
BECMG 3006/3009 36005KT
TEMPO 3012/3018 FEW050TCU
PROB30
TEMPO 3018/3106 VRB15G25KT -SHRA SCT025TCU SCT040CB
No reported NOTAMs for that airfield.



MET'MAP, your aeronautical weather chart ! - Copyright ORBIFLY December 2007 - Disclaimer

ORBIFLY MET'MAP TEAM :

Programming & Development : Alexandra Zaïnal
Concept & Development : Baudouin d'Aumeries
Co-Development & Prog : Marc-Olivier Méhu
Technical & hardware support : Manuel Goepfert

Contact : metmap@orbifly.com




SOURCES & CREDITS :

   NOAA